createdAt,value
2022-10-01T00:00:55.288Z,9.00
2022-10-01T00:03:25.536Z,12.07
2022-10-01T00:06:18.899Z,15.05
2022-10-01T00:08:48.723Z,9.93
2022-10-01T00:11:16.872Z,12.38
2022-10-01T00:13:44.120Z,9.60
2022-10-01T00:16:14.702Z,11.65
2022-10-01T00:18:43.535Z,10.77
2022-10-01T00:21:12.796Z,9.85
2022-10-01T00:23:40.241Z,11.60
2022-10-01T00:26:18.565Z,11.50
2022-10-01T00:28:47.331Z,17.02
2022-10-01T00:31:15.726Z,10.35
2022-10-01T00:33:42.766Z,10.53
2022-10-01T00:36:10.781Z,17.00
2022-10-01T00:38:40.133Z,12.10
2022-10-01T00:43:42.446Z,13.68
2022-10-01T00:46:21.446Z,12.02
2022-10-01T00:49:00.933Z,14.40
2022-10-01T00:51:32.599Z,14.63
2022-10-01T00:54:08.354Z,14.25
2022-10-01T00:56:35.342Z,9.77
2022-10-01T00:59:02.395Z,10.60
2022-10-01T01:01:29.010Z,10.30
2022-10-01T01:03:56.576Z,9.15
2022-10-01T01:06:23.255Z,12.32
2022-10-01T01:08:54.917Z,10.50
2022-10-01T01:11:33.990Z,12.15
2022-10-01T01:14:22.406Z,13.80
2022-10-01T01:16:57.416Z,7.72
2022-10-01T01:20:01.824Z,11.10
2022-10-01T01:22:33.340Z,14.10
2022-10-01T01:25:08.825Z,13.25
2022-10-01T01:27:41.666Z,12.77
2022-10-01T01:30:15.121Z,13.55
2022-10-01T01:33:04.615Z,16.38
2022-10-01T01:35:37.305Z,13.77
2022-10-01T01:38:11.312Z,11.98
2022-10-01T01:40:40.409Z,16.80
2022-10-01T01:43:11.879Z,16.40
2022-10-01T01:45:40.306Z,14.38
2022-10-01T01:48:09.796Z,14.90
2022-10-01T01:53:08.851Z,16.85
2022-10-01T01:55:37.024Z,18.05
2022-10-01T01:58:03.910Z,14.75
2022-10-01T02:00:30.391Z,13.40
2022-10-01T02:02:57.745Z,13.20
2022-10-01T02:05:28.964Z,20.17
2022-10-01T02:08:20.965Z,15.70
2022-10-01T02:11:01.920Z,14.48
2022-10-01T02:13:40.607Z,16.52
2022-10-01T02:16:30.416Z,17.77
2022-10-01T02:19:18.110Z,19.33
2022-10-01T02:21:58.582Z,17.15
2022-10-01T02:24:41.024Z,19.67
2022-10-01T02:27:44.209Z,18.33
2022-10-01T02:30:11.543Z,18.25
2022-10-01T02:32:40.449Z,17.75
2022-10-01T02:35:12.058Z,14.98
2022-10-01T02:37:41.219Z,13.32
2022-10-01T02:40:15.828Z,14.52
2022-10-01T02:42:48.362Z,15.65
2022-10-01T02:45:22.629Z,13.80
2022-10-01T02:47:58.804Z,16.02
2022-10-01T02:50:30.966Z,15.00
2022-10-01T02:53:06.648Z,21.77
2022-10-01T02:55:37.414Z,17.48
2022-10-01T02:58:04.590Z,17.15
2022-10-01T03:00:31.236Z,17.92
2022-10-01T03:02:57.810Z,18.13
2022-10-01T03:05:24.379Z,19.65
2022-10-01T03:07:50.914Z,15.50
2022-10-01T03:10:17.869Z,15.70
2022-10-01T03:12:46.357Z,18.98
2022-10-01T03:15:14.666Z,18.10
2022-10-01T03:17:41.268Z,15.98
2022-10-01T03:20:08.679Z,15.77
2022-10-01T03:22:35.479Z,13.63
2022-10-01T03:25:01.972Z,16.38
2022-10-01T03:27:28.504Z,16.00
2022-10-01T03:29:55.000Z,18.65
2022-10-01T03:32:21.528Z,15.90
2022-10-01T03:34:48.236Z,14.82
2022-10-01T03:37:14.738Z,18.73
2022-10-01T03:39:41.261Z,22.40
2022-10-01T03:42:07.757Z,13.00
2022-10-01T03:44:34.475Z,19.38
2022-10-01T03:47:00.983Z,15.32
2022-10-01T03:49:28.100Z,17.35
2022-10-01T03:51:54.620Z,18.80
2022-10-01T03:54:21.465Z,15.07
2022-10-01T03:56:48.786Z,14.98
2022-10-01T03:59:15.315Z,17.50
2022-10-01T04:01:41.897Z,19.45
2022-10-01T04:04:08.507Z,18.15
2022-10-01T04:06:35.062Z,15.93
2022-10-01T04:09:01.616Z,17.88
2022-10-01T04:11:28.217Z,19.15
2022-10-01T04:13:55.164Z,22.20
2022-10-01T04:16:21.774Z,22.40
2022-10-01T04:18:48.286Z,20.75
2022-10-01T04:21:15.421Z,19.67
2022-10-01T04:23:42.172Z,19.55
2022-10-01T04:26:09.111Z,19.48
2022-10-01T04:28:35.847Z,16.65
2022-10-01T04:31:20.932Z,22.00
2022-10-01T04:33:48.066Z,17.10
2022-10-01T04:36:14.638Z,24.00
2022-10-01T04:38:41.540Z,18.15
2022-10-01T04:41:09.122Z,16.35
2022-10-01T04:43:36.533Z,17.75
2022-10-01T04:46:03.070Z,19.15
2022-10-01T04:48:29.587Z,13.80
2022-10-01T04:50:56.057Z,15.25
2022-10-01T04:53:22.573Z,18.88
2022-10-01T04:55:49.112Z,14.02
2022-10-01T04:58:15.672Z,13.20
2022-10-01T05:00:42.270Z,16.25
2022-10-01T05:03:09.019Z,15.98
2022-10-01T05:05:35.571Z,13.73
2022-10-01T05:08:02.902Z,17.30
2022-10-01T05:10:29.393Z,17.15
2022-10-01T05:12:57.852Z,12.98
2022-10-01T05:15:24.439Z,14.93
2022-10-01T05:17:50.937Z,16.02
2022-10-01T05:20:20.042Z,11.98
2022-10-01T05:22:47.212Z,13.65
2022-10-01T05:25:13.887Z,12.85
2022-10-01T05:27:40.876Z,11.30
2022-10-01T05:30:10.451Z,14.93
2022-10-01T05:32:37.626Z,15.27
2022-10-01T05:35:05.347Z,14.70
2022-10-01T05:37:31.910Z,12.20
2022-10-01T05:39:58.459Z,12.90
2022-10-01T05:42:25.092Z,14.75
2022-10-01T05:44:51.615Z,15.25
2022-10-01T05:47:18.527Z,11.68
2022-10-01T05:49:45.047Z,13.73
2022-10-01T05:52:12.448Z,11.95
2022-10-01T05:54:39.297Z,19.65
2022-10-01T05:57:07.780Z,14.75
2022-10-01T05:59:35.183Z,13.50
2022-10-01T06:02:01.998Z,14.95
2022-10-01T06:04:28.574Z,12.70
2022-10-01T06:06:55.949Z,22.40
2022-10-01T06:09:22.589Z,14.35
2022-10-01T06:11:49.493Z,13.30
2022-10-01T06:14:16.904Z,13.77
2022-10-01T06:16:43.563Z,16.83
2022-10-01T06:19:10.316Z,15.80
2022-10-01T06:21:37.354Z,19.67
2022-10-01T06:24:04.256Z,13.95
2022-10-01T06:26:31.098Z,16.40
2022-10-01T06:28:57.636Z,13.75
2022-10-01T06:31:24.241Z,13.88
2022-10-01T06:33:50.774Z,12.98
2022-10-01T06:36:17.307Z,12.18
2022-10-01T06:38:43.883Z,13.75
2022-10-01T06:41:13.980Z,14.00
2022-10-01T06:43:40.552Z,12.02
2022-10-01T06:46:07.261Z,14.55
2022-10-01T06:48:36.232Z,12.43
2022-10-01T06:51:03.507Z,17.25
2022-10-01T06:53:30.333Z,14.30
2022-10-01T06:55:57.117Z,10.68
2022-10-01T06:58:27.616Z,10.98
2022-10-01T07:00:59.835Z,17.52
2022-10-01T07:03:27.614Z,11.10
2022-10-01T07:05:54.165Z,8.75
2022-10-01T07:08:20.960Z,10.90
2022-10-01T07:10:47.485Z,12.77
2022-10-01T07:13:20.130Z,9.40
2022-10-01T07:15:46.903Z,12.43
2022-10-01T07:18:13.686Z,14.63
2022-10-01T07:20:40.904Z,13.38
2022-10-01T07:23:15.351Z,10.70
2022-10-01T07:25:42.905Z,11.40
2022-10-01T07:28:18.546Z,8.95
2022-10-01T07:30:56.252Z,13.27
2022-10-01T07:33:22.736Z,21.83
2022-10-01T07:35:49.245Z,11.18
2022-10-01T07:38:16.042Z,10.82
2022-10-01T07:40:43.075Z,9.95
2022-10-01T07:43:09.709Z,12.40
2022-10-01T07:45:36.283Z,10.00
2022-10-01T07:48:03.361Z,10.15
2022-10-01T07:50:33.097Z,10.48
2022-10-01T07:52:59.843Z,11.07
2022-10-01T07:55:28.108Z,12.82
2022-10-01T07:57:56.544Z,9.70
2022-10-01T08:00:25.325Z,12.40
2022-10-01T08:02:54.209Z,12.25
2022-10-01T08:05:22.816Z,11.38
2022-10-01T08:07:50.236Z,9.90
2022-10-01T08:10:18.743Z,11.45
2022-10-01T08:12:46.006Z,9.33
2022-10-01T08:15:14.867Z,9.38
2022-10-01T08:17:41.750Z,11.57
2022-10-01T08:20:10.868Z,9.45
2022-10-01T08:22:41.856Z,12.55
2022-10-01T08:25:09.559Z,16.05
2022-10-01T08:27:36.562Z,12.00
2022-10-01T08:30:03.503Z,10.18
2022-10-01T08:32:31.582Z,16.88
2022-10-01T08:35:00.349Z,14.30
2022-10-01T08:37:30.188Z,9.70
2022-10-01T08:39:57.185Z,9.10
2022-10-01T08:42:47.624Z,12.20
2022-10-01T08:45:19.685Z,11.05
2022-10-01T08:48:24.128Z,7.70
2022-10-01T08:50:57.397Z,9.95
2022-10-01T08:53:42.476Z,10.43
2022-10-01T08:56:29.128Z,12.38
2022-10-01T08:59:03.429Z,12.20
2022-10-01T09:01:31.062Z,12.80
2022-10-01T09:03:59.321Z,9.80
2022-10-01T09:06:27.488Z,8.70
2022-10-01T09:09:12.903Z,8.30
2022-10-01T09:12:03.250Z,10.07
2022-10-01T09:15:00.989Z,5.68
2022-10-01T09:17:54.703Z,8.20
2022-10-01T09:20:25.584Z,7.38
2022-10-01T09:23:04.277Z,8.35
2022-10-01T09:25:31.848Z,5.80
2022-10-01T09:28:15.985Z,5.32
2022-10-01T09:30:55.582Z,7.05
2022-10-01T09:33:24.448Z,6.38
2022-10-01T09:36:00.026Z,5.53
2022-10-01T09:38:34.478Z,5.10
2022-10-01T09:41:00.967Z,4.78
2022-10-01T09:43:30.755Z,6.68
2022-10-01T09:45:57.660Z,4.95
2022-10-01T09:48:31.397Z,8.18
2022-10-01T09:51:12.069Z,5.30
2022-10-01T09:54:01.034Z,7.40
2022-10-01T09:56:33.773Z,10.02
2022-10-01T09:59:05.997Z,5.63
2022-10-01T10:01:54.674Z,5.30
2022-10-01T10:04:25.269Z,6.93
2022-10-01T10:06:59.496Z,10.18
2022-10-01T10:09:34.660Z,7.63
2022-10-01T10:12:02.321Z,10.50
2022-10-01T10:14:33.087Z,9.45
2022-10-01T10:17:11.584Z,5.78
2022-10-01T10:19:38.995Z,10.15
2022-10-01T10:22:23.044Z,8.77
2022-10-01T10:24:49.590Z,9.13
2022-10-01T10:27:30.291Z,5.20
2022-10-01T10:30:17.409Z,8.50
2022-10-01T10:32:46.943Z,8.70
2022-10-01T10:35:22.984Z,7.57
2022-10-01T10:37:55.537Z,7.63
2022-10-01T10:40:34.354Z,7.15
2022-10-01T10:43:01.273Z,6.57
2022-10-01T10:45:35.457Z,10.30
2022-10-01T10:48:04.631Z,3.83
2022-10-01T10:50:38.940Z,7.00
2022-10-01T10:53:19.647Z,6.22
2022-10-01T10:56:00.096Z,10.15
2022-10-01T10:58:29.696Z,4.80
2022-10-01T11:01:09.620Z,5.53
2022-10-01T11:03:41.440Z,4.65
2022-10-01T11:06:14.681Z,8.57
2022-10-01T11:08:42.758Z,5.78
2022-10-01T11:11:26.223Z,4.40
2022-10-01T11:13:58.281Z,3.55
2022-10-01T11:16:42.521Z,3.75
2022-10-01T11:19:22.896Z,3.45
2022-10-01T11:22:25.940Z,3.05
2022-10-01T11:25:16.532Z,3.83
2022-10-01T11:28:03.274Z,4.43
2022-10-01T11:30:58.700Z,5.18
2022-10-01T11:33:45.080Z,6.22
2022-10-01T11:36:26.393Z,7.10
2022-10-01T11:39:02.915Z,5.20
2022-10-01T11:41:30.633Z,4.22
2022-10-01T11:44:01.935Z,4.25
2022-10-01T11:46:41.231Z,7.05
2022-10-01T11:49:21.921Z,3.53
2022-10-01T11:52:32.476Z,4.28
2022-10-01T11:55:35.056Z,4.35
2022-10-01T11:58:48.592Z,3.90
2022-10-01T12:01:24.814Z,5.20
2022-10-01T12:03:54.074Z,4.95
2022-10-01T12:09:20.964Z,4.50
2022-10-01T12:11:59.325Z,3.72
2022-10-01T12:14:37.778Z,4.60
2022-10-01T12:17:21.348Z,3.37
2022-10-01T12:19:51.788Z,2.80
2022-10-01T12:22:25.703Z,3.90
2022-10-01T12:24:53.728Z,2.92
2022-10-01T12:27:38.291Z,3.50
2022-10-01T12:30:20.925Z,2.75
2022-10-01T12:33:09.857Z,4.70
2022-10-01T12:35:51.545Z,2.28
2022-10-01T12:38:37.915Z,1.70
2022-10-01T12:41:26.840Z,2.30
2022-10-01T12:44:18.489Z,5.22
2022-10-01T12:47:08.255Z,3.58
2022-10-01T12:49:52.806Z,2.97
2022-10-01T12:52:39.965Z,5.15
2022-10-01T12:55:34.140Z,1.75
2022-10-01T12:58:19.584Z,1.58
2022-10-01T13:01:12.304Z,3.00
2022-10-01T13:04:03.895Z,3.13
2022-10-01T13:06:56.569Z,8.05
2022-10-01T13:09:52.177Z,3.28
2022-10-01T13:13:01.095Z,2.40
2022-10-01T13:15:34.899Z,5.40
2022-10-01T13:18:06.405Z,3.05
2022-10-01T13:20:54.061Z,1.88
2022-10-01T13:23:38.644Z,4.13
2022-10-01T13:26:19.981Z,3.40
2022-10-01T13:29:16.023Z,3.35
2022-10-01T13:31:56.794Z,6.25
2022-10-01T13:34:51.832Z,3.92
2022-10-01T13:37:31.804Z,3.28
2022-10-01T13:39:59.885Z,1.40
2022-10-01T13:42:51.415Z,7.57
2022-10-01T13:45:29.027Z,1.63
2022-10-01T13:48:20.115Z,1.45
2022-10-01T13:51:04.904Z,2.05
2022-10-01T13:53:36.144Z,2.55
2022-10-01T13:56:04.536Z,3.22
2022-10-01T13:58:33.308Z,2.13
2022-10-01T14:01:03.645Z,1.67
2022-10-01T14:03:57.185Z,2.80
2022-10-01T14:06:35.505Z,2.00
2022-10-01T14:09:29.516Z,1.95
2022-10-01T14:12:24.552Z,0.90
2022-10-01T14:15:18.607Z,1.70
2022-10-01T14:17:48.865Z,1.17
2022-10-01T14:20:21.484Z,1.83
2022-10-01T14:23:00.332Z,2.42
2022-10-01T14:25:53.822Z,2.72
2022-10-01T14:28:51.442Z,1.80
2022-10-01T14:31:38.253Z,2.80
2022-10-01T14:34:12.052Z,1.48
2022-10-01T14:36:45.297Z,4.05
2022-10-01T14:39:27.125Z,5.10
2022-10-01T14:41:55.317Z,2.03
2022-10-01T14:44:30.355Z,2.75
2022-10-01T14:46:58.788Z,2.78
2022-10-01T14:49:28.392Z,5.25
2022-10-01T14:52:04.364Z,1.45
2022-10-01T14:54:47.363Z,1.58
2022-10-01T14:57:33.484Z,4.50
2022-10-01T15:00:07.426Z,2.30
2022-10-01T15:02:33.927Z,2.10
2022-10-01T15:05:00.838Z,0.75
2022-10-01T15:07:34.645Z,2.03
2022-10-01T15:10:08.484Z,0.57
2022-10-01T15:12:41.034Z,1.98
2022-10-01T15:15:27.923Z,2.97
2022-10-01T15:17:54.482Z,0.85
2022-10-01T15:20:21.132Z,1.10
2022-10-01T15:22:50.310Z,0.70
2022-10-01T15:25:22.062Z,2.80
2022-10-01T15:27:49.530Z,1.83
2022-10-01T15:30:18.176Z,1.27
2022-10-01T15:32:48.466Z,2.90
2022-10-01T15:35:19.329Z,3.85
2022-10-01T15:37:50.253Z,4.78
2022-10-01T15:40:30.207Z,4.32
2022-10-01T15:43:21.425Z,2.78
2022-10-01T15:46:28.835Z,4.97
2022-10-01T15:49:20.007Z,2.28
2022-10-01T15:52:11.993Z,3.63
2022-10-01T15:54:43.694Z,3.50
2022-10-01T15:57:20.057Z,2.60
2022-10-01T15:59:49.121Z,4.63
2022-10-01T16:02:24.301Z,2.60
2022-10-01T16:04:55.968Z,3.60
2022-10-01T16:07:31.424Z,6.18
2022-10-01T16:10:00.228Z,5.53
2022-10-01T16:12:28.359Z,6.10
2022-10-01T16:15:06.129Z,5.13
2022-10-01T16:17:38.683Z,4.20
2022-10-01T16:20:14.284Z,6.38
2022-10-01T16:22:41.817Z,5.65
2022-10-01T16:25:22.880Z,5.05
2022-10-01T16:28:05.198Z,9.15
2022-10-01T16:30:33.925Z,7.32
2022-10-01T16:33:04.381Z,20.38
2022-10-01T16:35:36.013Z,6.90
2022-10-01T16:38:06.547Z,7.88
2022-10-01T16:40:38.555Z,8.30
2022-10-01T16:43:07.409Z,9.02
2022-10-01T16:45:38.461Z,28.05
2022-10-01T16:48:19.936Z,11.48
2022-10-01T16:50:47.091Z,16.05
2022-10-01T16:53:16.551Z,7.15
2022-10-01T16:55:44.033Z,10.38
2022-10-01T16:58:11.196Z,9.48
2022-10-01T17:00:38.569Z,8.07
2022-10-01T17:03:07.330Z,5.35
2022-10-01T17:05:35.968Z,5.55
2022-10-01T17:08:10.838Z,4.50
2022-10-01T17:10:56.842Z,3.58
2022-10-01T17:13:24.767Z,7.15
2022-10-01T17:15:52.045Z,5.38
2022-10-01T17:18:18.875Z,8.68
2022-10-01T17:20:48.313Z,7.50
2022-10-01T17:23:17.320Z,5.82
2022-10-01T17:25:43.878Z,6.65
2022-10-01T17:28:16.355Z,5.57
2022-10-01T17:30:44.336Z,5.80
2022-10-01T17:33:13.641Z,7.80
2022-10-01T17:38:07.974Z,12.93
2022-10-01T17:40:34.806Z,8.48
2022-10-01T17:43:01.347Z,8.45
2022-10-01T17:45:28.019Z,7.53
2022-10-01T17:47:56.328Z,5.13
2022-10-01T17:50:23.611Z,9.60
2022-10-01T17:52:50.437Z,7.18
2022-10-01T17:55:19.762Z,3.83
2022-10-01T18:00:12.929Z,10.82
2022-10-01T18:02:42.693Z,5.35
2022-10-01T18:05:12.771Z,8.63
2022-10-01T18:07:40.345Z,4.30
2022-10-01T18:10:09.575Z,7.25
2022-10-01T18:12:36.131Z,9.77
2022-10-01T18:15:02.709Z,3.55
2022-10-01T18:17:32.088Z,4.43
2022-10-01T18:19:58.894Z,7.60
2022-10-01T18:22:26.445Z,7.35
2022-10-01T18:24:53.145Z,6.95
2022-10-01T18:27:19.740Z,5.50
2022-10-01T18:29:46.357Z,7.20
2022-10-01T18:32:31.326Z,8.02
2022-10-01T18:34:59.050Z,6.45
2022-10-01T18:37:45.544Z,8.98
2022-10-01T18:40:20.704Z,5.97
2022-10-01T18:43:07.310Z,11.02
2022-10-01T18:45:36.954Z,6.30
2022-10-01T18:48:13.443Z,7.20
2022-10-01T18:50:43.205Z,9.52
2022-10-01T18:53:36.246Z,6.47
2022-10-01T18:56:17.929Z,5.75
2022-10-01T18:58:51.568Z,9.85
2022-10-01T19:01:27.298Z,12.13
2022-10-01T19:03:54.012Z,18.70
2022-10-01T19:06:29.257Z,12.27
2022-10-01T19:09:08.021Z,10.63
2022-10-01T19:12:03.064Z,14.38
2022-10-01T19:14:57.920Z,6.97
2022-10-01T19:18:05.044Z,8.57
2022-10-01T19:20:46.165Z,8.40
2022-10-01T19:23:37.673Z,9.02
2022-10-01T19:26:21.023Z,5.55
2022-10-01T19:29:11.621Z,12.85
2022-10-01T19:31:52.963Z,12.75
2022-10-01T19:34:30.900Z,9.80
2022-10-01T19:37:05.900Z,9.13
2022-10-01T19:39:37.800Z,12.43
2022-10-01T19:42:24.435Z,7.53
2022-10-01T19:44:59.928Z,11.65
2022-10-01T19:47:45.804Z,14.13
2022-10-01T19:50:24.076Z,9.80
2022-10-01T19:53:00.991Z,7.82
2022-10-01T19:55:38.752Z,10.18
2022-10-01T19:58:17.852Z,6.53
2022-10-01T20:00:48.256Z,8.38
2022-10-01T20:03:29.004Z,6.53
2022-10-01T20:06:13.581Z,8.02
2022-10-01T20:11:47.544Z,10.63
2022-10-01T20:14:59.266Z,9.43
2022-10-01T20:17:53.026Z,7.75
2022-10-01T20:21:10.204Z,9.77
2022-10-01T20:24:08.992Z,9.45
2022-10-01T20:27:02.549Z,11.15
2022-10-01T20:29:51.268Z,7.78
2022-10-01T20:32:42.887Z,7.75
2022-10-01T20:35:27.534Z,8.95
2022-10-01T20:38:20.504Z,6.78
2022-10-01T20:40:55.895Z,7.18
2022-10-01T20:43:54.574Z,10.57
2022-10-01T20:46:49.513Z,11.07
2022-10-01T20:49:46.378Z,7.18
2022-10-01T20:52:37.677Z,12.30
2022-10-01T20:55:09.689Z,9.50
2022-10-01T20:57:53.367Z,8.05
2022-10-01T21:00:26.297Z,8.32
2022-10-01T21:03:06.029Z,10.07
2022-10-01T21:05:42.830Z,10.88
2022-10-01T21:08:43.779Z,5.80
2022-10-01T21:11:33.336Z,8.80
2022-10-01T21:14:26.612Z,5.95
2022-10-01T21:17:07.518Z,15.43
2022-10-01T21:20:11.409Z,9.43
2022-10-01T21:22:48.081Z,12.40
2022-10-01T21:25:36.367Z,12.25
2022-10-01T21:28:27.633Z,12.27
2022-10-01T21:31:28.461Z,10.30
2022-10-01T21:34:20.701Z,8.23
2022-10-01T21:37:10.001Z,10.27
2022-10-01T21:40:03.945Z,13.20
2022-10-01T21:42:54.326Z,6.07
2022-10-01T21:45:54.045Z,7.95
2022-10-01T21:48:46.013Z,11.00
2022-10-01T21:51:31.962Z,8.50
2022-10-01T21:54:35.546Z,10.30
2022-10-01T21:57:18.495Z,10.25
2022-10-01T22:00:09.646Z,7.85
2022-10-01T22:02:46.260Z,8.43
2022-10-01T22:05:37.186Z,14.82
2022-10-01T22:08:10.420Z,8.20
2022-10-01T22:10:45.586Z,7.13
2022-10-01T22:13:21.832Z,9.93
2022-10-01T22:15:56.984Z,10.88
2022-10-01T22:18:40.833Z,8.85
2022-10-01T22:21:18.586Z,8.18
2022-10-01T22:23:50.550Z,11.10
2022-10-01T22:26:21.108Z,10.48
2022-10-01T22:28:54.863Z,9.48
2022-10-01T22:31:33.539Z,10.45
2022-10-01T22:34:02.674Z,13.23
2022-10-01T22:36:39.125Z,10.20
2022-10-01T22:39:17.664Z,9.50
2022-10-01T22:41:52.674Z,7.68
2022-10-01T22:44:21.316Z,13.13
2022-10-01T22:47:06.028Z,8.63
2022-10-01T22:49:57.018Z,10.07
2022-10-01T22:52:39.198Z,9.48
2022-10-01T22:55:21.397Z,14.23
2022-10-01T22:58:29.192Z,13.90
2022-10-01T23:01:11.067Z,11.48
2022-10-01T23:04:13.130Z,13.00
2022-10-01T23:07:13.940Z,8.25
2022-10-01T23:10:12.385Z,7.78
2022-10-01T23:13:16.922Z,9.07
2022-10-01T23:16:16.444Z,15.75
2022-10-01T23:19:18.342Z,15.73
2022-10-01T23:22:00.244Z,8.52
2022-10-01T23:24:52.361Z,6.47
2022-10-01T23:27:31.661Z,7.65
2022-10-01T23:32:32.643Z,10.55
2022-10-01T23:35:13.192Z,12.90
2022-10-01T23:38:01.420Z,9.25
2022-10-01T23:40:33.634Z,11.33
2022-10-01T23:43:25.768Z,12.35
2022-10-01T23:46:14.374Z,11.25
2022-10-01T23:48:49.564Z,11.20
2022-10-01T23:51:34.227Z,14.30
2022-10-01T23:54:12.728Z,16.90
2022-10-01T23:56:59.388Z,10.45
2022-10-01T23:59:50.404Z,11.25
